CheckWX is a tool to help pilots better visualize weather data.  It is not intended as a substitute for an official pre-flight weather briefing.

16:56:39 UTC

CYKF TAF
Waterloo Airport
Kitchener, Canada
TAF CYKF 181338Z 1814/1902 VRB03KT P6SM BKN060 FM182000 VRB03KT P6SM BKN040 TEMPO 1820/1901 P6SM -SHRA RMK FCST BASED ON AUTO OBS. NXT FCST BY 182000Z

Jun-18@
14:00 UTC

Jun-18 @ 14:00 UTC

Jun-18@
20:00 UTC

Jun-18 @ 20:00 UTC

TAF CYKF 181338Z 1814/1902 VRB03KT P6SM BKN060
Wind
  • Variable at 3 KTS
Cloud Levels
  • Broken at 6,000' AGL

Jun-18@
20:00 UTC

Jun-18 @ 20:00 UTC

Jun-19@
01:00 UTC

Jun-19 @ 01:00 UTC

TEMPO 1820/1901 P6SM -SHRA RMK FCST BASED ON AUTO OBS. NXT FCST BY 182000Z

Temporary

Temporary Changes expected for less than half the time period

Conditions
Light Rain

Jun-18@
20:00 UTC

Jun-18 @ 20:00 UTC

Jun-19@
02:00 UTC

Jun-19 @ 02:00 UTC

FM182000 VRB03KT P6SM BKN040

From

From Standard forecast or significant change

Wind
  • Variable at 3 KTS
Cloud Levels
  • Broken at 4,000' AGL